Time;durP1;ratioP1;P1;durP2;ratioP2;P2;SDS_P1;SDS_P2;PMS_P1;PMS_P2;Temp;Humidity;BMP_temperature;BMP_pressure;BME280_temperature;BME280_humidity;BME280_pressure;Samples;Min_cycle;Max_cycle;Signal;HPM_P1;HPM_P2
2023/03/03 00:00:12;;;;;;;24.88;11.65;;;;;;;-0.41;100.00;101716.81;4988374;28;21957;-76
2023/03/03 00:02:39;;;;;;;26.77;11.98;;;;;;;-0.38;100.00;101720.44;5005764;28;20782;-78
2023/03/03 00:05:06;;;;;;;26.83;12.48;;;;;;;-0.30;100.00;101709.66;5005999;28;20038;-86
2023/03/03 00:07:32;;;;;;;20.25;11.43;;;;;;;-0.27;100.00;101713.28;4981383;28;20062;-83
2023/03/03 00:09:59;;;;;;;22.73;10.98;;;;;;;-0.27;100.00;101715.84;5004208;28;20070;-75
2023/03/03 00:12:31;;;;;;;24.58;11.68;;;;;;;-0.26;100.00;101709.00;5003779;28;20128;-77
2023/03/03 00:15:00;;;;;;;21.67;10.75;;;;;;;-0.29;100.00;101712.31;4987274;28;20042;-81
2023/03/03 00:17:32;;;;;;;21.88;12.02;;;;;;;-0.31;100.00;101707.88;4996438;28;20404;-81
2023/03/03 00:19:58;;;;;;;23.15;11.73;;;;;;;-0.31;100.00;101711.34;4988876;28;20218;-77
2023/03/03 00:22:36;;;;;;;17.83;10.15;;;;;;;-0.32;100.00;101712.16;4986262;28;20062;-82
2023/03/03 00:25:36;;;;;;;20.45;11.50;;;;;;;-0.34;100.00;101717.22;4971124;28;20050;-75
2023/03/03 00:28:31;;;;;;;23.33;12.07;;;;;;;-0.31;100.00;101723.31;4942963;28;20077;-82
2023/03/03 00:31:02;;;;;;;19.33;10.55;;;;;;;-0.31;100.00;101731.94;4995214;28;20128;-76
2023/03/03 00:33:33;;;;;;;28.30;12.65;;;;;;;-0.31;100.00;101736.19;4992527;28;20788;-81
2023/03/03 00:36:10;;;;;;;24.45;11.70;;;;;;;-0.31;100.00;101736.19;4995357;28;20037;-80
2023/03/03 00:38:37;;;;;;;24.30;12.93;;;;;;;-0.41;100.00;101737.41;4984157;28;20503;-79
2023/03/03 00:41:16;;;;;;;22.38;11.05;;;;;;;-0.46;100.00;101738.84;5012862;28;20042;-77
2023/03/03 00:43:43;;;;;;;21.67;10.90;;;;;;;-0.48;100.00;101740.44;4979555;28;20046;-81
2023/03/03 00:46:09;;;;;;;21.38;10.32;;;;;;;-0.45;100.00;101735.47;4996946;28;20566;-78
2023/03/03 00:48:36;;;;;;;20.92;9.82;;;;;;;-0.45;100.00;101738.03;5002458;28;20042;-79
2023/03/03 00:51:27;;;;;;;21.98;10.93;;;;;;;-0.46;100.00;101738.84;5014429;28;20099;-76
2023/03/03 00:53:54;;;;;;;15.90;9.32;;;;;;;-0.46;100.00;101732.00;4995194;28;20082;-77
2023/03/03 00:56:21;;;;;;;17.30;9.13;;;;;;;-0.55;100.00;101729.84;4997825;28;20038;-79
2023/03/03 00:58:47;;;;;;;19.25;8.95;;;;;;;-0.57;100.00;101723.72;4986120;28;20046;-78
2023/03/03 01:01:15;;;;;;;18.73;8.05;;;;;;;-0.55;100.00;101740.13;4993602;28;20038;-80
2023/03/03 01:03:41;;;;;;;15.20;9.13;;;;;;;-0.54;100.00;101731.59;5009895;28;20044;-75
2023/03/03 01:06:08;;;;;;;16.38;9.00;;;;;;;-0.56;100.00;101722.00;4994532;28;20041;-79
2023/03/03 01:08:35;;;;;;;18.85;9.63;;;;;;;-0.60;100.00;101713.28;5004157;28;20104;-86
2023/03/03 01:11:20;;;;;;;19.02;9.25;;;;;;;-0.63;100.00;101712.22;5011381;28;20187;-76
2023/03/03 01:13:50;;;;;;;17.77;8.10;;;;;;;-0.69;100.00;101718.81;5007441;28;20092;-79
2023/03/03 01:16:17;;;;;;;16.52;8.98;;;;;;;-0.74;100.00;101725.38;5003510;28;20495;-81
2023/03/03 01:18:43;;;;;;;16.88;8.27;;;;;;;-0.73;100.00;101733.97;4979781;28;20037;-81
2023/03/03 01:21:11;;;;;;;17.98;8.88;;;;;;;-0.72;100.00;101736.66;4989274;28;20099;-78
2023/03/03 01:23:38;;;;;;;19.60;9.52;;;;;;;-0.73;100.00;101739.09;4993154;28;20567;-76
2023/03/03 01:26:06;;;;;;;19.98;9.73;;;;;;;-0.72;100.00;101735.75;4995095;28;20616;-77
2023/03/03 01:28:34;;;;;;;23.40;11.73;;;;;;;-0.73;100.00;101727.16;4988761;28;20157;-77
2023/03/03 01:31:05;;;;;;;20.42;9.77;;;;;;;-0.75;100.00;101725.31;4993398;28;20543;-80
2023/03/03 01:33:34;;;;;;;18.48;9.27;;;;;;;-0.75;100.00;101725.31;4993820;28;20045;-76
2023/03/03 01:36:00;;;;;;;20.15;10.95;;;;;;;-0.79;100.00;101719.09;4981833;28;20100;-76
2023/03/03 01:38:28;;;;;;;22.55;10.48;;;;;;;-0.82;100.00;101724.09;5004425;28;20104;-77
2023/03/03 01:41:02;;;;;;;20.27;9.80;;;;;;;-0.85;100.00;101721.31;4995620;28;20480;-79
2023/03/03 01:43:35;;;;;;;18.60;9.48;;;;;;;-0.79;100.00;101720.78;4975664;28;20101;-80
2023/03/03 01:46:01;;;;;;;21.45;10.82;;;;;;;-0.77;100.00;101725.22;4995401;28;20057;-79
2023/03/03 01:48:41;;;;;;;20.48;9.40;;;;;;;-0.81;100.00;101740.38;4987879;28;20038;-80
2023/03/03 01:51:26;;;;;;;22.83;9.90;;;;;;;-0.84;100.00;101738.53;4993401;28;20128;-80
2023/03/03 01:53:58;;;;;;;21.38;10.10;;;;;;;-0.81;100.00;101740.38;4991152;28;20045;-81
2023/03/03 01:56:27;;;;;;;20.13;10.02;;;;;;;-0.80;100.00;101742.16;5008263;28;20041;-82
2023/03/03 01:59:23;;;;;;;19.58;11.50;;;;;;;-0.79;100.00;101736.22;4998531;28;20045;-76
2023/03/03 02:01:50;;;;;;;23.00;10.57;;;;;;;-0.81;100.00;101741.25;4991319;28;20129;-80
2023/03/03 02:04:20;;;;;;;22.92;9.95;;;;;;;-0.75;100.00;101733.88;4996949;28;20042;-77
2023/03/03 02:07:14;;;;;;;20.45;9.98;;;;;;;-0.70;100.00;101723.88;4987370;28;20053;-78
2023/03/03 02:10:10;;;;;;;23.00;10.93;;;;;;;-0.69;100.00;101723.06;4988064;28;20050;-78
2023/03/03 02:12:50;;;;;;;21.48;9.38;;;;;;;-0.68;100.00;101719.66;4992988;28;20053;-78
2023/03/03 02:15:28;;;;;;;20.98;10.02;;;;;;;-0.63;100.00;101714.78;4991424;28;20060;-82
2023/03/03 02:18:07;;;;;;;20.35;10.65;;;;;;;-0.61;100.00;101715.72;5002605;28;20056;-77
2023/03/03 02:21:18;;;;;;;18.98;9.75;;;;;;;-0.63;100.00;101715.66;4997605;28;20046;-77
2023/03/03 02:24:10;;;;;;;14.32;8.75;;;;;;;-0.64;100.00;101713.88;4993068;28;20177;-80
2023/03/03 02:26:40;;;;;;;19.60;9.32;;;;;;;-0.65;100.00;101714.72;5005498;28;20095;-77
2023/03/03 02:29:09;;;;;;;18.20;10.48;;;;;;;-0.68;100.00;101710.28;4996323;28;20062;-80
2023/03/03 02:31:37;;;;;;;24.38;10.70;;;;;;;-0.63;100.00;101702.81;5007341;28;20050;-78
2023/03/03 02:34:04;;;;;;;19.33;9.88;;;;;;;-0.63;100.00;101710.53;4994444;28;20060;-78
2023/03/03 02:36:38;;;;;;;20.63;9.43;;;;;;;-0.65;100.00;101700.94;4992257;28;20049;-77
2023/03/03 02:39:17;;;;;;;;;;;;;;;-0.65;100.00;101704.44;4989025;28;20526;-82
2023/03/03 02:42:00;;;;;;;17.98;9.27;;;;;;;-0.64;100.00;101706.16;4973500;28;20291;-78
2023/03/03 02:44:29;;;;;;;15.37;8.40;;;;;;;-0.64;100.00;101706.16;4990835;28;20054;-79
2023/03/03 02:46:57;;;;;;;21.88;10.32;;;;;;;-0.64;100.00;101702.72;5001016;28;20288;-80
2023/03/03 02:49:30;;;;;;;19.83;9.82;;;;;;;-0.67;100.00;101691.47;4971858;28;20044;-77
2023/03/03 02:51:59;;;;;;;18.83;10.07;;;;;;;-0.64;100.00;101698.47;5005617;28;20100;-75
2023/03/03 02:54:29;;;;;;;19.40;9.23;;;;;;;-0.61;100.00;101697.72;4989554;28;20157;-82
2023/03/03 02:56:57;;;;;;;19.75;10.13;;;;;;;-0.60;100.00;101695.28;4991950;28;20054;-83
2023/03/03 02:59:24;;;;;;;21.45;10.27;;;;;;;-0.52;100.00;101688.84;4989446;28;20053;-82
2023/03/03 03:01:51;;;;;;;20.20;9.95;;;;;;;-0.45;100.00;101691.75;5008362;28;20041;-75
2023/03/03 03:04:21;;;;;;;17.00;7.85;;;;;;;-0.48;100.00;101694.13;4992136;28;20046;-75
2023/03/03 03:06:48;;;;;;;14.77;8.05;;;;;;;-0.55;100.00;101687.78;4977211;28;20050;-78
2023/03/03 03:09:16;;;;;;;16.30;8.55;;;;;;;-0.60;100.00;101687.56;4988331;28;20052;-80
2023/03/03 03:11:43;;;;;;;19.42;8.98;;;;;;;-0.60;100.00;101690.13;4990783;28;20096;-83
2023/03/03 03:14:12;;;;;;;19.42;9.48;;;;;;;-0.54;100.00;101698.16;4976226;28;20041;-74
2023/03/03 03:16:39;;;;;;;19.73;9.23;;;;;;;-0.51;100.00;101689.72;5008579;28;20033;-82
2023/03/03 03:19:06;;;;;;;17.83;8.80;;;;;;;-0.49;100.00;101694.97;4984853;28;20054;-82
2023/03/03 03:21:33;;;;;;;20.30;8.88;;;;;;;-0.47;100.00;101704.53;4990847;28;20046;-82
2023/03/03 03:24:00;;;;;;;19.42;9.63;;;;;;;-0.42;100.00;101704.75;4992101;28;20508;-79
2023/03/03 03:26:27;;;;;;;21.00;10.40;;;;;;;-0.41;100.00;101704.81;4974839;28;20137;-78
2023/03/03 03:28:54;;;;;;;20.63;10.85;;;;;;;-0.42;100.00;101703.06;4998481;28;20065;-76
2023/03/03 03:31:22;;;;;;;19.10;11.18;;;;;;;-0.41;100.00;101704.81;5007589;28;20057;-85
2023/03/03 03:33:49;;;;;;;19.73;9.82;;;;;;;-0.43;100.00;101701.31;5027063;28;20465;-75
2023/03/03 03:36:15;;;;;;;21.55;10.60;;;;;;;-0.40;100.00;101700.59;5009112;28;20046;-75
2023/03/03 03:38:42;;;;;;;19.30;8.95;;;;;;;-0.36;100.00;101711.09;5022485;28;20068;-75
2023/03/03 03:41:08;;;;;;;28.42;10.88;;;;;;;-0.37;100.00;101693.88;5012787;28;20349;-82
2023/03/03 03:43:35;;;;;;;20.75;8.70;;;;;;;-0.30;100.00;101699.38;5021197;28;20044;-75
2023/03/03 03:46:03;;;;;;;17.88;9.18;;;;;;;-0.25;100.00;101696.25;4995221;28;20038;-77
2023/03/03 03:48:30;;;;;;;20.77;9.77;;;;;;;-0.23;100.00;101698.91;5006415;28;20141;-76
2023/03/03 03:50:56;;;;;;;20.45;10.00;;;;;;;-0.22;100.00;101695.50;5009135;28;20049;-77
2023/03/03 03:53:23;;;;;;;21.98;10.27;;;;;;;-0.23;100.00;101697.19;4991368;28;20564;-75
2023/03/03 03:55:49;;;;;;;20.65;11.10;;;;;;;-0.22;100.00;101696.41;5028133;28;20045;-75
2023/03/03 03:58:18;;;;;;;19.92;9.68;;;;;;;-0.24;100.00;101700.56;5011999;28;20052;-75
2023/03/03 04:00:47;;;;;;;19.42;9.50;;;;;;;-0.23;100.00;101702.34;5026189;28;20480;-78
2023/03/03 04:03:14;;;;;;;23.15;10.43;;;;;;;-0.22;100.00;101703.22;5012574;28;20041;-79
2023/03/03 04:05:40;;;;;;;22.75;10.82;;;;;;;-0.21;100.00;101713.59;5023858;28;20815;-76
2023/03/03 04:08:07;;;;;;;22.10;9.93;;;;;;;-0.19;100.00;101724.84;5011935;28;20613;-79
2023/03/03 04:10:34;;;;;;;22.25;10.45;;;;;;;-0.15;100.00;101709.59;5008255;28;20047;-78
2023/03/03 04:13:01;;;;;;;21.75;10.93;;;;;;;-0.13;100.00;101713.09;5010290;28;20455;-78
2023/03/03 04:15:28;;;;;;;21.63;11.02;;;;;;;-0.12;100.00;101714.88;5009027;28;20053;-77
2023/03/03 04:17:57;;;;;;;23.80;10.15;;;;;;;-0.13;100.00;101716.59;5007906;28;20037;-76
2023/03/03 04:20:23;;;;;;;25.55;11.85;;;;;;;-0.12;100.00;101712.31;5012766;28;20042;-80
2023/03/03 04:22:50;;;;;;;20.50;10.68;;;;;;;-0.12;100.00;101720.03;5007147;28;20049;-76
2023/03/03 04:25:18;;;;;;;23.60;10.88;;;;;;;-0.16;100.00;101724.13;5024524;28;20052;-75
2023/03/03 04:27:45;;;;;;;24.00;11.20;;;;;;;-0.18;100.00;101725.75;5000363;28;20042;-79
2023/03/03 04:30:14;;;;;;;22.38;9.68;;;;;;;-0.18;100.00;101730.91;5005539;28;20041;-80
2023/03/03 04:32:40;;;;;;;23.02;11.43;;;;;;;-0.19;100.00;101721.41;5007009;28;20060;-74
2023/03/03 04:35:08;;;;;;;21.58;10.45;;;;;;;-0.19;100.00;101732.56;5007391;28;20041;-75
2023/03/03 04:37:36;;;;;;;22.63;12.20;;;;;;;-0.13;100.00;101729.44;5021442;28;20042;-76
2023/03/03 04:40:09;;;;;;;32.58;12.23;;;;;;;-0.10;100.00;101719.31;5010621;28;20606;-77
2023/03/03 04:42:36;;;;;;;23.80;10.82;;;;;;;-0.08;100.00;101720.28;5006367;28;20077;-79
2023/03/03 04:45:03;;;;;;;27.05;11.90;;;;;;;-0.07;100.00;101729.75;5011411;28;20052;-85
2023/03/03 04:47:31;;;;;;;21.80;10.52;;;;;;;-0.06;100.00;101728.06;5021522;28;21539;-77
2023/03/03 04:49:57;;;;;;;21.83;9.50;;;;;;;-0.09;100.00;101726.22;5007510;28;20052;-76
2023/03/03 04:52:24;;;;;;;25.08;11.63;;;;;;;-0.12;100.00;101730.31;5025001;28;20060;-76
2023/03/03 04:54:50;;;;;;;20.52;10.93;;;;;;;-0.19;100.00;101722.28;5004035;28;20934;-81
2023/03/03 04:57:17;;;;;;;26.70;11.70;;;;;;;-0.19;100.00;101724.84;5003863;28;20073;-82
2023/03/03 04:59:43;;;;;;;23.25;10.48;;;;;;;-0.21;100.00;101734.19;5023169;28;20239;-77
2023/03/03 05:02:11;;;;;;;24.48;11.02;;;;;;;-0.22;100.00;101740.13;5004724;28;20046;-77
2023/03/03 05:04:38;;;;;;;25.90;11.68;;;;;;;-0.20;100.00;101743.66;5010899;28;20038;-76
2023/03/03 05:07:05;;;;;;;22.85;12.85;;;;;;;-0.15;100.00;101738.78;5021746;28;20076;-82
2023/03/03 05:09:32;;;;;;;33.30;12.98;;;;;;;-0.12;100.00;101731.19;5005060;28;20034;-79
2023/03/03 05:11:58;;;;;;;26.27;11.73;;;;;;;-0.10;100.00;101737.31;5022437;28;20044;-76
2023/03/03 05:14:25;;;;;;;28.15;11.98;;;;;;;-0.07;100.00;101727.16;5006538;28;20048;-81
2023/03/03 05:16:51;;;;;;;27.17;13.07;;;;;;;-0.11;100.00;101727.81;4991183;28;20108;-86
2023/03/03 05:19:18;;;;;;;24.65;12.57;;;;;;;-0.13;100.00;101723.41;5010506;28;20564;-87
2023/03/03 05:21:44;;;;;;;25.15;12.32;;;;;;;-0.11;100.00;101722.69;5009495;28;20038;-78
2023/03/03 05:24:14;;;;;;;22.42;10.93;;;;;;;-0.09;100.00;101718.50;4993165;28;20381;-74
2023/03/03 05:26:41;;;;;;;27.55;13.55;;;;;;;-0.07;100.00;101718.56;5008280;28;20092;-80
2023/03/03 05:29:09;;;;;;;28.67;12.20;;;;;;;-0.08;100.00;101720.28;5023354;28;20061;-75
2023/03/03 05:31:36;;;;;;;23.35;12.52;;;;;;;-0.13;100.00;101707.97;5011453;28;20049;-85
2023/03/03 05:34:03;;;;;;;22.38;12.38;;;;;;;-0.19;100.00;101700.81;5010475;28;20079;-75
2023/03/03 05:36:29;;;;;;;26.08;12.80;;;;;;;-0.23;100.00;101697.19;5012764;28;20139;-75
2023/03/03 05:38:56;;;;;;;24.95;11.93;;;;;;;-0.21;100.00;101700.75;5008478;28;20045;-75
2023/03/03 05:41:22;;;;;;;22.85;12.85;;;;;;;-0.16;100.00;101700.97;5028098;28;20048;-79
2023/03/03 05:43:49;;;;;;;28.15;11.73;;;;;;;-0.12;100.00;101699.44;5013113;28;20049;-76
2023/03/03 05:46:16;;;;;;;29.45;11.30;;;;;;;-0.11;100.00;101699.50;5010449;28;20041;-77
2023/03/03 05:48:43;;;;;;;24.90;10.80;;;;;;;-0.10;100.00;101692.69;5004452;28;20052;-76
2023/03/03 05:51:09;;;;;;;23.75;10.77;;;;;;;-0.11;100.00;101699.50;5008026;28;20041;-76
2023/03/03 05:53:36;;;;;;;23.00;11.70;;;;;;;-0.08;100.00;101693.63;5010433;28;20128;-77
2023/03/03 05:56:03;;;;;;;25.63;11.50;;;;;;;-0.04;100.00;101709.34;5008648;28;20049;-75
2023/03/03 05:58:30;;;;;;;27.83;13.07;;;;;;;-0.01;100.00;101708.59;5007308;28;20129;-80
2023/03/03 06:00:57;;;;;;;29.27;11.88;;;;;;;0.01;100.00;101711.25;4993274;28;20092;-79
2023/03/03 06:03:23;;;;;;;22.83;12.15;;;;;;;-0.01;100.00;101711.19;5010391;28;20064;-82
2023/03/03 06:05:50;;;;;;;20.90;11.27;;;;;;;0.04;100.00;101707.16;5010565;28;20495;-75
2023/03/03 06:08:16;;;;;;;27.33;11.98;;;;;;;0.07;100.00;101716.72;5006992;28;20103;-76
2023/03/03 06:10:43;;;;;;;30.23;14.10;;;;;;;0.04;100.00;101724.25;5011637;28;20045;-75
2023/03/03 06:13:09;;;;;;;26.70;11.85;;;;;;;0.04;100.00;101732.00;5027799;28;20056;-76
2023/03/03 06:15:36;;;;;;;29.00;13.27;;;;;;;0.08;100.00;101734.81;5009577;28;20044;-76
2023/03/03 06:18:03;;;;;;;27.65;13.05;;;;;;;0.06;100.00;101733.84;5025993;28;20037;-77
2023/03/03 06:20:30;;;;;;;24.10;11.95;;;;;;;0.12;100.00;101743.59;5013634;28;20547;-81
2023/03/03 06:23:02;;;;;;;36.40;16.05;;;;;;;0.12;100.00;101743.59;5025090;28;20041;-78
2023/03/03 06:25:28;;;;;;;30.83;15.05;;;;;;;0.11;100.00;101747.84;5009351;28;20053;-78
2023/03/03 06:27:55;;;;;;;32.70;14.82;;;;;;;0.10;100.00;101755.50;5007502;28;20064;-79
2023/03/03 06:30:25;;;;;;;38.25;18.10;;;;;;;0.13;100.00;101759.09;5012722;28;20041;-77
2023/03/03 06:32:52;;;;;;;29.63;14.80;;;;;;;0.12;100.00;101767.63;5001610;28;20045;-78
2023/03/03 06:35:21;;;;;;;30.17;15.15;;;;;;;0.14;100.00;101775.44;5011224;28;20041;-75
2023/03/03 06:37:49;;;;;;;35.35;15.10;;;;;;;0.15;100.00;101772.06;4996396;28;20049;-76
2023/03/03 06:40:16;;;;;;;28.08;13.90;;;;;;;0.18;100.00;101779.94;4995486;28;20166;-76
2023/03/03 06:42:43;;;;;;;32.97;14.82;;;;;;;0.22;100.00;101769.00;5008587;28;20046;-76
2023/03/03 06:45:10;;;;;;;33.30;13.43;;;;;;;0.22;100.00;101773.25;4987822;28;20042;-83
2023/03/03 06:47:36;;;;;;;34.17;13.68;;;;;;;0.23;100.00;101775.03;5008918;28;20045;-76
2023/03/03 06:50:03;;;;;;;28.38;12.90;;;;;;;0.26;100.00;101770.94;5008355;28;20378;-75
2023/03/03 06:52:29;;;;;;;23.08;10.95;;;;;;;0.29;100.00;101765.91;5011083;28;20049;-76
2023/03/03 06:55:01;;;;;;;24.50;12.43;;;;;;;0.32;100.00;101771.22;5008169;28;20069;-77
2023/03/03 06:57:33;;;;;;;26.38;13.85;;;;;;;0.35;100.00;101772.19;5027743;28;20183;-76
2023/03/03 07:00:27;;;;;;;26.17;12.52;;;;;;;0.36;100.00;101773.97;4994530;28;20812;-76
2023/03/03 07:03:06;;;;;;;31.55;16.38;;;;;;;0.36;100.00;101772.25;4998647;28;20050;-84
2023/03/03 07:05:33;;;;;;;29.15;14.02;;;;;;;0.33;100.00;101777.28;5024120;28;20049;-78
2023/03/03 07:08:00;;;;;;;33.92;16.90;;;;;;;0.27;100.00;101782.97;5009856;28;20444;-77
2023/03/03 07:10:30;;;;;;;30.42;15.77;;;;;;;0.29;100.00;101777.94;4993760;28;20045;-76
2023/03/03 07:13:25;;;;;;;32.55;15.68;;;;;;;0.23;100.00;101778.47;5010661;28;20045;-78
2023/03/03 07:15:59;;;;;;;34.00;15.60;;;;;;;0.26;100.00;101777.75;5029566;28;20052;-76
2023/03/03 07:18:37;;;;;;;33.40;16.02;;;;;;;0.28;100.00;101786.44;5008838;28;20046;-84
2023/03/03 07:21:31;;;;;;;36.15;15.82;;;;;;;0.31;100.00;101779.78;5028177;28;20048;-79
2023/03/03 07:24:00;;;;;;;27.15;14.80;;;;;;;0.36;100.00;101784.28;5011819;28;20060;-80
2023/03/03 07:26:31;;;;;;;30.55;14.80;;;;;;;0.40;100.00;101793.91;4994489;28;20057;-79
2023/03/03 07:29:23;;;;;;;31.65;15.15;;;;;;;0.45;100.00;101787.31;5009081;28;20057;-81
2023/03/03 07:31:50;;;;;;;31.30;13.93;;;;;;;0.46;100.00;101791.66;5025928;28;20048;-75
2023/03/03 07:34:24;;;;;;;29.45;12.38;;;;;;;0.50;100.00;101801.31;4990975;28;20099;-83
2023/03/03 07:36:55;;;;;;;26.13;13.60;;;;;;;0.54;100.00;101804.94;4989482;28;20049;-78
2023/03/03 07:39:31;;;;;;;25.52;11.13;;;;;;;0.57;100.00;101797.34;5010519;28;20121;-79
2023/03/03 07:42:22;;;;;;;22.20;10.82;;;;;;;0.64;100.00;101804.59;5001529;28;20065;-75
2023/03/03 07:44:52;;;;;;;20.27;10.23;;;;;;;0.63;100.00;101805.41;5020268;28;20045;-79
2023/03/03 07:47:38;;;;;;;19.83;9.73;;;;;;;0.56;100.00;101793.91;5023538;28;20132;-83
2023/03/03 07:50:20;;;;;;;21.05;10.23;;;;;;;0.62;100.00;101803.63;5006351;28;20064;-76
2023/03/03 07:52:58;;;;;;;21.55;10.15;;;;;;;0.71;100.00;101808.34;5003912;28;20464;-78
2023/03/03 07:55:37;;;;;;;19.38;9.90;;;;;;;0.74;100.00;101809.38;5002706;28;20621;-79
2023/03/03 07:58:14;;;;;;;24.05;11.63;;;;;;;0.71;100.00;101810.94;5023344;28;20045;-75
2023/03/03 08:01:38;;;;;;;32.03;13.15;;;;;;;0.75;100.00;101806.00;5027529;28;20671;-77
2023/03/03 08:04:15;;;;;;;32.05;15.52;;;;;;;0.82;100.00;101814.91;4986486;28;20429;-81
2023/03/03 08:06:49;;;;;;;35.85;15.65;;;;;;;0.87;100.00;101817.72;5027857;28;20456;-76
2023/03/03 08:09:47;;;;;;;37.03;16.92;;;;;;;0.93;100.00;101815.47;5028449;28;20489;-79
2023/03/03 08:12:38;;;;;;;43.38;17.33;;;;;;;0.83;100.00;101821.84;5009026;28;20119;-77
2023/03/03 08:15:23;;;;;;;30.70;15.63;;;;;;;0.81;100.00;101816.63;5028150;28;20083;-80
2023/03/03 08:17:52;;;;;;;36.30;16.88;;;;;;;0.89;100.00;101821.28;5012545;28;20049;-83
2023/03/03 08:20:44;;;;;;;35.53;16.50;;;;;;;0.93;100.00;101815.47;5010087;28;20055;-76
2023/03/03 08:23:12;;;;;;;28.02;14.88;;;;;;;0.99;100.00;101816.63;5016600;28;20041;-78
2023/03/03 08:25:41;;;;;;;29.88;16.90;;;;;;;1.10;100.00;101822.31;5028861;28;20046;-78
2023/03/03 08:28:09;;;;;;;31.17;16.80;;;;;;;1.19;100.00;101828.72;5025202;28;20065;-78
2023/03/03 08:30:35;;;;;;;47.10;20.92;;;;;;;1.17;100.00;101823.47;4990270;28;20041;-76
2023/03/03 08:33:01;;;;;;;38.67;19.90;;;;;;;1.16;100.00;101824.28;4999706;28;20042;-77
2023/03/03 08:35:28;;;;;;;34.92;17.48;;;;;;;1.25;100.00;101826.44;4978144;28;20042;-76
2023/03/03 08:37:55;;;;;;;42.10;19.42;;;;;;;1.32;100.00;101831.97;4992986;28;20220;-78
2023/03/03 08:40:24;;;;;;;39.40;19.50;;;;;;;1.36;100.00;101839.88;5003136;28;20041;-86
2023/03/03 08:42:50;;;;;;;35.83;17.65;;;;;;;1.33;100.00;101838.03;4987702;28;20878;-79
2023/03/03 08:45:17;;;;;;;39.08;16.77;;;;;;;1.28;100.00;101834.34;4973743;28;20053;-76
2023/03/03 08:47:43;;;;;;;36.45;16.52;;;;;;;1.31;100.00;101837.06;4991914;28;20038;-81
2023/03/03 08:50:10;;;;;;;35.28;17.38;;;;;;;1.39;100.00;101832.25;4998306;28;20081;-78
2023/03/03 08:52:37;;;;;;;35.83;18.60;;;;;;;1.43;100.00;101829.88;4986583;28;20042;-76
2023/03/03 08:55:04;;;;;;;44.30;23.00;;;;;;;1.46;100.00;101831.72;4999161;28;20038;-77
2023/03/03 08:57:31;;;;;;;44.38;20.70;;;;;;;1.46;100.00;101837.78;4983593;28;20046;-76
2023/03/03 08:59:58;;;;;;;39.95;20.83;;;;;;;1.51;100.00;101829.38;4994069;28;20046;-76
2023/03/03 09:02:24;;;;;;;51.97;20.65;;;;;;;1.55;100.00;101833.88;5012411;28;20492;-78
2023/03/03 09:04:51;;;;;;;40.78;18.77;;;;;;;1.61;100.00;101831.59;4999730;28;20064;-81
2023/03/03 09:07:18;;;;;;;43.80;20.58;;;;;;;1.65;100.00;101836.06;4999291;28;20062;-77
2023/03/03 09:09:44;;;;;;;45.88;21.23;;;;;;;1.67;100.00;101837.03;4992629;28;20377;-78
2023/03/03 09:12:25;;;;;;;36.95;20.40;;;;;;;1.65;100.00;101833.50;5013741;28;20042;-75
2023/03/03 09:14:51;;;;;;;41.10;19.85;;;;;;;1.66;100.00;101835.25;4995735;28;20481;-80
2023/03/03 09:17:33;;;;;;;43.65;22.00;;;;;;;1.70;100.00;101825.97;4998471;28;20480;-76
2023/03/03 09:20:22;;;;;;;45.20;22.65;;;;;;;1.75;100.00;101830.53;5005798;28;20089;-82
2023/03/03 09:22:50;;;;;;;47.63;22.23;;;;;;;1.71;100.00;101825.13;5030501;28;20144;-75
2023/03/03 09:25:35;;;;;;;48.75;22.45;;;;;;;1.62;100.00;101828.19;4999271;28;20042;-76
2023/03/03 09:28:04;;;;;;;42.25;19.90;;;;;;;1.70;100.00;101825.97;4998990;28;20053;-76
2023/03/03 09:30:41;;;;;;;38.03;20.20;;;;;;;1.73;100.00;101815.78;5028250;28;20042;-78
2023/03/03 09:33:25;;;;;;;41.30;21.35;;;;;;;1.69;100.00;101827.66;5011865;28;20633;-76
2023/03/03 09:36:02;;;;;;;44.75;22.10;;;;;;;1.80;100.00;101831.63;5029184;28;20533;-81
2023/03/03 09:38:35;;;;;;;55.45;23.40;;;;;;;1.90;100.00;101821.72;5017371;28;20099;-76
2023/03/03 09:41:30;;;;;;;52.90;20.60;;;;;;;1.98;100.00;101828.09;4998676;28;20137;-78
2023/03/03 09:44:05;;;;;;;;;;;;;;;2.00;100.00;101829.06;5033223;28;20145;-77
2023/03/03 09:47:19;;;;;;;37.70;17.73;;;;;;;2.14;99.96;101833.13;5033981;28;19921;-76
2023/03/03 09:49:53;;;;;;;37.55;16.85;;;;;;;2.10;99.33;101836.41;5029873;28;20053;-75
2023/03/03 09:53:15;;;;;;;33.50;16.23;;;;;;;2.03;99.64;101830.91;5023170;28;20046;-78
2023/03/03 09:56:02;;;;;;;32.97;16.48;;;;;;;2.09;100.00;101837.22;5028192;28;20041;-76
2023/03/03 09:58:56;;;;;;;36.67;18.38;;;;;;;2.12;99.52;101845.09;5012883;28;20084;-84
2023/03/03 10:01:44;;;;;;;40.92;19.95;;;;;;;2.00;99.75;101838.53;5008535;28;20141;-76
2023/03/03 10:04:48;;;;;;;37.47;19.00;;;;;;;2.05;99.94;101844.78;5028302;28;20080;-79
2023/03/03 10:07:26;;;;;;;44.53;20.08;;;;;;;2.09;99.30;101846.69;5024097;28;20045;-79
2023/03/03 10:10:23;;;;;;;37.30;19.38;;;;;;;2.26;99.18;101842.25;5028316;28;20049;-76
2023/03/03 10:13:31;;;;;;;32.85;15.80;;;;;;;2.43;96.27;101840.41;5025301;28;20045;-76
2023/03/03 10:16:42;;;;;;;35.58;17.85;;;;;;;2.53;95.88;101836.50;5019889;28;20030;-78
2023/03/03 10:19:27;;;;;;;41.83;20.33;;;;;;;2.46;95.55;101837.94;5027188;28;20040;-75
2023/03/03 10:22:24;;;;;;;37.63;19.15;;;;;;;2.36;95.96;101840.94;5036253;28;20090;-74
2023/03/03 10:25:04;;;;;;;33.63;18.65;;;;;;;2.39;96.05;101854.91;5017898;28;20048;-76
2023/03/03 10:27:58;;;;;;;31.83;17.02;;;;;;;2.29;96.48;101848.47;5011154;28;20045;-79
2023/03/03 10:30:55;;;;;;;;;;;;;;;2.33;96.68;101854.63;5006731;28;20050;-77
2023/03/03 10:33:59;;;;;;;30.42;14.32;;;;;;;2.44;96.37;101855.97;5014781;28;19961;-75
2023/03/03 10:36:49;;;;;;;28.15;14.82;;;;;;;2.38;94.87;101852.25;5029952;28;20053;-86
2023/03/03 10:39:41;;;;;;;28.15;13.85;;;;;;;2.36;95.55;101854.78;5009210;28;20059;-77
2023/03/03 10:42:36;;;;;;;26.55;13.80;;;;;;;2.38;96.71;101850.53;5007854;28;20093;-77
2023/03/03 10:45:33;;;;;;;23.10;12.27;;;;;;;2.57;94.70;101847.06;5025180;28;20052;-81
2023/03/03 10:48:09;;;;;;;29.65;14.45;;;;;;;2.50;94.56;101850.19;5022901;28;20053;-75
2023/03/03 10:50:59;;;;;;;30.33;15.77;;;;;;;2.54;93.94;101852.06;5027584;28;20072;-76
2023/03/03 10:54:05;;;;;;;32.45;17.73;;;;;;;2.67;93.66;101852.63;5020856;28;20069;-81
2023/03/03 10:57:03;;;;;;;36.22;18.30;;;;;;;2.70;92.97;101860.50;5027300;28;20052;-76
2023/03/03 11:00:04;;;;;;;30.73;16.35;;;;;;;2.78;93.56;101861.72;5032646;28;20380;-76
2023/03/03 11:02:39;;;;;;;35.03;15.82;;;;;;;2.89;92.80;101859.59;5013619;28;20040;-78
2023/03/03 11:05:39;;;;;;;27.92;14.85;;;;;;;2.93;93.08;101857.22;5028432;28;20049;-79
2023/03/03 11:08:14;;;;;;;27.77;13.63;;;;;;;3.12;92.81;101852.78;5029706;28;20072;-82
2023/03/03 11:10:59;;;;;;;29.55;14.07;;;;;;;3.15;92.07;101850.31;5029931;28;20117;-78
2023/03/03 11:14:20;;;;;;;27.45;14.65;;;;;;;3.03;92.64;101844.66;5033617;28;20049;-76
2023/03/03 11:17:10;;;;;;;29.77;14.63;;;;;;;3.02;93.41;101850.63;5026258;28;20049;-76
2023/03/03 11:20:24;;;;;;;25.85;13.85;;;;;;;3.05;92.17;101846.47;5031908;28;20129;-75
2023/03/03 11:23:17;;;;;;;26.33;12.30;;;;;;;3.16;92.93;101843.44;5000812;28;20788;-75
2023/03/03 11:26:10;;;;;;;33.63;14.88;;;;;;;3.03;92.23;101840.34;5011732;28;20147;-77
2023/03/03 11:28:44;;;;;;;27.27;13.75;;;;;;;3.08;93.43;101840.56;5015542;28;20049;-76
2023/03/03 11:31:47;;;;;;;;;;;;;;;3.16;92.76;101835.69;5013598;28;20041;-76
2023/03/03 11:34:50;;;;;;;29.40;13.52;;;;;;;3.20;92.13;101840.16;4995621;28;19921;-75
2023/03/03 11:37:24;;;;;;;36.17;16.38;;;;;;;3.23;92.29;101833.38;5012124;28;20049;-76
2023/03/03 11:39:56;;;;;;;34.08;18.38;;;;;;;3.40;91.22;101828.00;5013857;28;20060;-75
2023/03/03 11:42:46;;;;;;;37.30;18.20;;;;;;;3.62;89.85;101820.28;5012829;28;20041;-75